sensor_id;sensor_type;location;lat;lon;timestamp;pressure;altitude;pressure_sealevel;temperature;humidity
64053;BME280;50299;49.524;8.536;2022-11-15T00:00:57;100223.69;;;8.83;63.45
64053;BME280;50299;49.524;8.536;2022-11-15T00:03:25;100216.88;;;8.72;61.49
64053;BME280;50299;49.524;8.536;2022-11-15T00:05:52;100208.91;;;8.79;61.85
64053;BME280;50299;49.524;8.536;2022-11-15T00:08:18;100213.31;;;8.98;64.43
64053;BME280;50299;49.524;8.536;2022-11-15T00:10:55;100208.63;;;8.98;62.99
64053;BME280;50299;49.524;8.536;2022-11-15T00:13:21;100201.97;;;8.91;63.88
64053;BME280;50299;49.524;8.536;2022-11-15T00:15:48;100198.88;;;8.92;63.78
64053;BME280;50299;49.524;8.536;2022-11-15T00:18:15;100200.97;;;8.86;63.51
64053;BME280;50299;49.524;8.536;2022-11-15T00:20:41;100206.00;;;8.76;63.11
64053;BME280;50299;49.524;8.536;2022-11-15T00:23:08;100199.34;;;8.68;61.94
64053;BME280;50299;49.524;8.536;2022-11-15T00:25:35;100206.91;;;8.62;64.03
64053;BME280;50299;49.524;8.536;2022-11-15T00:28:02;100200.25;;;8.55;62.85
64053;BME280;50299;49.524;8.536;2022-11-15T00:30:28;100201.09;;;8.64;66.65
64053;BME280;50299;49.524;8.536;2022-11-15T00:32:55;100201.59;;;8.66;64.00
64053;BME280;50299;49.524;8.536;2022-11-15T00:35:21;100189.25;;;8.55;64.40
64053;BME280;50299;49.524;8.536;2022-11-15T00:37:48;100194.91;;;8.58;64.88
64053;BME280;50299;49.524;8.536;2022-11-15T00:40:15;100191.72;;;8.65;63.18
64053;BME280;50299;49.524;8.536;2022-11-15T00:42:41;100180.88;;;8.69;65.46
64053;BME280;50299;49.524;8.536;2022-11-15T00:45:08;100184.78;;;8.76;64.11
64053;BME280;50299;49.524;8.536;2022-11-15T00:47:35;100186.88;;;8.79;63.52
64053;BME280;50299;49.524;8.536;2022-11-15T00:50:02;100188.00;;;8.96;65.71
64053;BME280;50299;49.524;8.536;2022-11-15T00:52:28;100181.19;;;9.10;63.67
64053;BME280;50299;49.524;8.536;2022-11-15T00:54:54;100182.34;;;9.18;64.83
64053;BME280;50299;49.524;8.536;2022-11-15T00:57:21;100184.44;;;9.21;65.83
64053;BME280;50299;49.524;8.536;2022-11-15T00:59:47;100181.22;;;9.02;65.36
64053;BME280;50299;49.524;8.536;2022-11-15T01:02:13;100180.72;;;8.91;65.56
64053;BME280;50299;49.524;8.536;2022-11-15T01:04:40;100174.38;;;8.91;59.66
64053;BME280;50299;49.524;8.536;2022-11-15T01:07:06;100162.56;;;8.99;67.79
64053;BME280;50299;49.524;8.536;2022-11-15T01:09:32;100173.41;;;8.86;64.24
64053;BME280;50299;49.524;8.536;2022-11-15T01:11:59;100167.09;;;8.86;64.79
64053;BME280;50299;49.524;8.536;2022-11-15T01:14:25;100158.19;;;8.80;62.08
64053;BME280;50299;49.524;8.536;2022-11-15T01:16:52;100163.38;;;8.65;61.90
64053;BME280;50299;49.524;8.536;2022-11-15T01:19:18;100158.75;;;8.34;62.65
64053;BME280;50299;49.524;8.536;2022-11-15T01:21:44;100159.09;;;8.41;64.60
64053;BME280;50299;49.524;8.536;2022-11-15T01:24:12;100165.72;;;8.40;62.97
64053;BME280;50299;49.524;8.536;2022-11-15T01:26:39;100166.56;;;8.49;64.67
64053;BME280;50299;49.524;8.536;2022-11-15T01:29:05;100162.84;;;8.62;66.50
64053;BME280;50299;49.524;8.536;2022-11-15T01:31:32;100153.41;;;8.46;62.04
64053;BME280;50299;49.524;8.536;2022-11-15T01:33:58;100156.00;;;8.43;63.36
64053;BME280;50299;49.524;8.536;2022-11-15T01:36:24;100156.66;;;8.48;61.34
64053;BME280;50299;49.524;8.536;2022-11-15T01:38:55;100154.41;;;8.59;62.19
64053;BME280;50299;49.524;8.536;2022-11-15T01:41:25;100160.41;;;8.52;63.66
64053;BME280;50299;49.524;8.536;2022-11-15T01:43:54;100163.81;;;8.58;61.83
64053;BME280;50299;49.524;8.536;2022-11-15T01:48:50;100154.75;;;8.75;62.10
64053;BME280;50299;49.524;8.536;2022-11-15T01:51:19;100158.03;;;8.68;64.14
64053;BME280;50299;49.524;8.536;2022-11-15T01:53:49;100152.44;;;8.51;62.53
64053;BME280;50299;49.524;8.536;2022-11-15T01:56:20;100155.88;;;8.48;64.09
64053;BME280;50299;49.524;8.536;2022-11-15T01:58:47;100161.00;;;8.23;62.78
64053;BME280;50299;49.524;8.536;2022-11-15T02:01:14;100141.22;;;8.21;63.85
64053;BME280;50299;49.524;8.536;2022-11-15T02:03:49;100142.88;;;8.31;63.98
64053;BME280;50299;49.524;8.536;2022-11-15T02:06:18;100144.31;;;8.28;62.38
64053;BME280;50299;49.524;8.536;2022-11-15T02:08:45;100135.88;;;8.25;65.14
64053;BME280;50299;49.524;8.536;2022-11-15T02:11:12;100135.25;;;8.28;68.73
64053;BME280;50299;49.524;8.536;2022-11-15T02:13:38;100134.91;;;8.21;65.62
64053;BME280;50299;49.524;8.536;2022-11-15T02:18:38;100119.81;;;8.18;67.91
64053;BME280;50299;49.524;8.536;2022-11-15T02:21:12;100124.69;;;8.12;64.96
64053;BME280;50299;49.524;8.536;2022-11-15T02:27:05;100117.53;;;8.03;63.03
64053;BME280;50299;49.524;8.536;2022-11-15T02:30:20;100105.56;;;7.99;68.69
64053;BME280;50299;49.524;8.536;2022-11-15T02:33:03;100109.56;;;7.93;67.37
64053;BME280;50299;49.524;8.536;2022-11-15T02:35:58;100108.47;;;8.02;66.48
64053;BME280;50299;49.524;8.536;2022-11-15T02:38:31;100100.31;;;7.88;64.00
64053;BME280;50299;49.524;8.536;2022-11-15T02:41:04;100090.09;;;7.80;66.96
64053;BME280;50299;49.524;8.536;2022-11-15T02:43:40;100089.81;;;7.82;66.37
64053;BME280;50299;49.524;8.536;2022-11-15T02:46:37;100084.19;;;8.04;70.95
64053;BME280;50299;49.524;8.536;2022-11-15T02:49:25;100083.22;;;8.18;67.92
64053;BME280;50299;49.524;8.536;2022-11-15T02:51:55;100076.25;;;8.11;69.68
64053;BME280;50299;49.524;8.536;2022-11-15T02:54:25;100079.19;;;8.24;71.29
64053;BME280;50299;49.524;8.536;2022-11-15T02:57:16;100076.91;;;8.17;65.39
64053;BME280;50299;49.524;8.536;2022-11-15T03:00:01;100077.88;;;8.04;67.60
64053;BME280;50299;49.524;8.536;2022-11-15T03:03:27;100069.28;;;8.05;69.66
64053;BME280;50299;49.524;8.536;2022-11-15T03:11:34;100066.22;;;8.07;66.59
64053;BME280;50299;49.524;8.536;2022-11-15T03:14:19;100060.91;;;8.19;67.30
64053;BME280;50299;49.524;8.536;2022-11-15T03:19:40;100058.13;;;8.54;62.30
64053;BME280;50299;49.524;8.536;2022-11-15T03:22:12;100072.72;;;8.72;69.77
64053;BME280;50299;49.524;8.536;2022-11-15T03:24:41;100067.53;;;8.79;63.44
64053;BME280;50299;49.524;8.536;2022-11-15T03:27:12;100071.94;;;8.88;69.63
64053;BME280;50299;49.524;8.536;2022-11-15T03:29:45;100069.44;;;9.04;64.51
64053;BME280;50299;49.524;8.536;2022-11-15T03:32:40;100070.72;;;9.16;69.05
64053;BME280;50299;49.524;8.536;2022-11-15T03:35:08;100067.69;;;9.47;77.72
64053;BME280;50299;49.524;8.536;2022-11-15T03:40:05;100072.13;;;9.69;68.67
64053;BME280;50299;49.524;8.536;2022-11-15T03:47:49;100061.66;;;9.92;69.95
64053;BME280;50299;49.524;8.536;2022-11-15T03:50:19;100062.09;;;9.73;61.44
64053;BME280;50299;49.524;8.536;2022-11-15T03:52:48;100064.13;;;9.46;64.65
64053;BME280;50299;49.524;8.536;2022-11-15T03:55:18;100063.56;;;9.23;62.74
64053;BME280;50299;49.524;8.536;2022-11-15T03:57:47;100062.97;;;9.09;63.43
64053;BME280;50299;49.524;8.536;2022-11-15T04:00:15;100060.81;;;9.23;75.23
64053;BME280;50299;49.524;8.536;2022-11-15T04:02:42;100061.72;;;9.36;67.77
64053;BME280;50299;49.524;8.536;2022-11-15T04:05:08;100058.16;;;9.35;62.47
64053;BME280;50299;49.524;8.536;2022-11-15T04:07:34;100064.16;;;9.37;66.06
64053;BME280;50299;49.524;8.536;2022-11-15T04:10:02;100067.84;;;9.50;64.94
64053;BME280;50299;49.524;8.536;2022-11-15T04:12:48;100068.47;;;9.56;63.05
64053;BME280;50299;49.524;8.536;2022-11-15T04:15:17;100073.22;;;9.47;64.29
64053;BME280;50299;49.524;8.536;2022-11-15T04:17:48;100068.69;;;9.42;59.46
64053;BME280;50299;49.524;8.536;2022-11-15T04:20:27;100073.47;;;9.16;61.41
64053;BME280;50299;49.524;8.536;2022-11-15T04:23:22;100077.88;;;8.99;67.61
64053;BME280;50299;49.524;8.536;2022-11-15T04:26:12;100075.09;;;9.25;77.26
64053;BME280;50299;49.524;8.536;2022-11-15T04:28:40;100069.47;;;9.51;70.86
64053;BME280;50299;49.524;8.536;2022-11-15T04:31:27;100073.84;;;9.52;67.75
64053;BME280;50299;49.524;8.536;2022-11-15T04:33:55;100066.06;;;9.54;65.98
64053;BME280;50299;49.524;8.536;2022-11-15T04:36:21;100057.03;;;9.66;66.13
64053;BME280;50299;49.524;8.536;2022-11-15T04:39:07;100062.69;;;9.78;64.33
64053;BME280;50299;49.524;8.536;2022-11-15T04:41:33;100061.97;;;9.90;72.50
64053;BME280;50299;49.524;8.536;2022-11-15T04:44:00;100065.81;;;9.68;62.48
64053;BME280;50299;49.524;8.536;2022-11-15T04:46:26;100062.16;;;9.55;65.74
64053;BME280;50299;49.524;8.536;2022-11-15T04:48:53;100057.44;;;9.56;71.55
64053;BME280;50299;49.524;8.536;2022-11-15T04:51:24;100061.69;;;9.45;62.40
64053;BME280;50299;49.524;8.536;2022-11-15T04:53:51;100048.28;;;9.34;61.78
64053;BME280;50299;49.524;8.536;2022-11-15T04:56:17;100049.13;;;9.26;67.03
64053;BME280;50299;49.524;8.536;2022-11-15T04:58:43;100039.63;;;9.45;61.48
64053;BME280;50299;49.524;8.536;2022-11-15T05:01:14;100046.00;;;9.66;71.71
64053;BME280;50299;49.524;8.536;2022-11-15T05:03:43;100043.72;;;9.68;68.44
64053;BME280;50299;49.524;8.536;2022-11-15T05:06:29;100038.00;;;9.82;69.76
64053;BME280;50299;49.524;8.536;2022-11-15T05:08:55;100027.97;;;9.77;70.28
64053;BME280;50299;49.524;8.536;2022-11-15T05:11:22;100033.03;;;9.75;69.02
64053;BME280;50299;49.524;8.536;2022-11-15T05:13:49;100030.66;;;9.86;75.23
64053;BME280;50299;49.524;8.536;2022-11-15T05:16:15;100013.28;;;9.56;58.51
64053;BME280;50299;49.524;8.536;2022-11-15T05:18:42;100014.84;;;8.89;66.76
64053;BME280;50299;49.524;8.536;2022-11-15T05:21:11;100019.19;;;8.99;66.12
64053;BME280;50299;49.524;8.536;2022-11-15T05:23:38;100023.31;;;9.31;84.53
64053;BME280;50299;49.524;8.536;2022-11-15T05:26:09;100024.47;;;9.21;70.17
64053;BME280;50299;49.524;8.536;2022-11-15T05:28:37;100027.13;;;9.09;68.94
64053;BME280;50299;49.524;8.536;2022-11-15T05:31:08;100025.56;;;8.56;60.57
64053;BME280;50299;49.524;8.536;2022-11-15T05:33:35;100020.22;;;8.59;66.95
64053;BME280;50299;49.524;8.536;2022-11-15T05:36:29;100014.88;;;8.80;75.70
64053;BME280;50299;49.524;8.536;2022-11-15T05:38:57;100021.72;;;9.12;71.50
64053;BME280;50299;49.524;8.536;2022-11-15T05:41:32;100010.75;;;9.42;70.94
64053;BME280;50299;49.524;8.536;2022-11-15T05:44:01;100022.16;;;9.61;78.20
64053;BME280;50299;49.524;8.536;2022-11-15T05:46:29;100017.72;;;9.78;73.57
64053;BME280;50299;49.524;8.536;2022-11-15T05:48:56;100026.44;;;9.89;67.89
64053;BME280;50299;49.524;8.536;2022-11-15T05:51:23;100020.72;;;9.94;77.39
64053;BME280;50299;49.524;8.536;2022-11-15T05:53:51;100026.69;;;9.75;61.85
64053;BME280;50299;49.524;8.536;2022-11-15T05:56:19;100025.63;;;9.50;60.10
64053;BME280;50299;49.524;8.536;2022-11-15T05:58:45;100027.41;;;9.16;59.32
64053;BME280;50299;49.524;8.536;2022-11-15T06:01:12;100023.91;;;8.98;65.85
64053;BME280;50299;49.524;8.536;2022-11-15T06:03:38;100012.53;;;9.00;65.27
64053;BME280;50299;49.524;8.536;2022-11-15T06:06:05;100011.53;;;9.13;67.83
64053;BME280;50299;49.524;8.536;2022-11-15T06:08:31;100014.44;;;9.08;62.37
64053;BME280;50299;49.524;8.536;2022-11-15T06:11:06;100020.19;;;8.94;62.59
64053;BME280;50299;49.524;8.536;2022-11-15T06:13:33;100022.31;;;8.80;62.21
64053;BME280;50299;49.524;8.536;2022-11-15T06:16:00;100022.47;;;8.75;65.19
64053;BME280;50299;49.524;8.536;2022-11-15T06:18:26;100011.81;;;8.65;67.17
64053;BME280;50299;49.524;8.536;2022-11-15T06:20:52;100016.66;;;8.42;62.58
64053;BME280;50299;49.524;8.536;2022-11-15T06:23:19;100023.16;;;8.37;65.68
64053;BME280;50299;49.524;8.536;2022-11-15T06:25:45;100018.13;;;8.22;65.31
64053;BME280;50299;49.524;8.536;2022-11-15T06:28:12;100026.06;;;8.32;66.68
64053;BME280;50299;49.524;8.536;2022-11-15T06:30:38;100024.13;;;8.24;66.30
64053;BME280;50299;49.524;8.536;2022-11-15T06:33:05;100027.34;;;7.91;63.99
64053;BME280;50299;49.524;8.536;2022-11-15T06:35:33;100034.25;;;7.80;65.10
64053;BME280;50299;49.524;8.536;2022-11-15T06:38:09;100037.81;;;7.80;65.99
64053;BME280;50299;49.524;8.536;2022-11-15T06:40:37;100032.69;;;8.13;70.97
64053;BME280;50299;49.524;8.536;2022-11-15T06:43:04;100022.19;;;8.33;64.58
64053;BME280;50299;49.524;8.536;2022-11-15T06:45:31;100023.47;;;8.53;75.65
64053;BME280;50299;49.524;8.536;2022-11-15T06:47:58;100029.16;;;8.65;67.52
64053;BME280;50299;49.524;8.536;2022-11-15T06:50:24;100022.66;;;8.44;68.47
64053;BME280;50299;49.524;8.536;2022-11-15T06:52:53;100015.69;;;8.46;66.35
64053;BME280;50299;49.524;8.536;2022-11-15T06:55:20;100015.53;;;8.25;63.92
64053;BME280;50299;49.524;8.536;2022-11-15T06:57:51;100005.66;;;8.33;65.23
64053;BME280;50299;49.524;8.536;2022-11-15T07:00:19;100021.38;;;8.32;66.01
64053;BME280;50299;49.524;8.536;2022-11-15T07:02:47;100016.66;;;8.50;68.64
64053;BME280;50299;49.524;8.536;2022-11-15T07:05:14;100026.56;;;8.51;65.54
64053;BME280;50299;49.524;8.536;2022-11-15T07:07:54;100020.53;;;8.75;75.34
64053;BME280;50299;49.524;8.536;2022-11-15T07:10:21;100019.81;;;9.04;73.05
64053;BME280;50299;49.524;8.536;2022-11-15T07:12:54;100016.13;;;9.38;79.93
64053;BME280;50299;49.524;8.536;2022-11-15T07:15:24;100019.09;;;9.63;79.23
64053;BME280;50299;49.524;8.536;2022-11-15T07:17:53;100017.00;;;9.90;76.96
64053;BME280;50299;49.524;8.536;2022-11-15T07:20:19;100016.47;;;9.96;74.38
64053;BME280;50299;49.524;8.536;2022-11-15T07:22:46;100022.16;;;10.00;65.62
64053;BME280;50299;49.524;8.536;2022-11-15T07:25:33;100015.84;;;9.91;71.24
64053;BME280;50299;49.524;8.536;2022-11-15T07:28:00;100017.94;;;9.94;67.95
64053;BME280;50299;49.524;8.536;2022-11-15T07:30:28;100023.34;;;10.11;72.79
64053;BME280;50299;49.524;8.536;2022-11-15T07:32:56;100014.47;;;10.05;75.00
64053;BME280;50299;49.524;8.536;2022-11-15T07:35:24;100025.38;;;10.02;69.56
64053;BME280;50299;49.524;8.536;2022-11-15T07:38:01;100020.78;;;10.06;72.89
64053;BME280;50299;49.524;8.536;2022-11-15T07:40:30;100023.47;;;10.15;68.27
64053;BME280;50299;49.524;8.536;2022-11-15T07:43:04;100024.44;;;10.19;74.07
64053;BME280;50299;49.524;8.536;2022-11-15T07:45:33;100026.31;;;10.27;73.90
64053;BME280;50299;49.524;8.536;2022-11-15T07:48:00;100034.94;;;10.25;74.14
64053;BME280;50299;49.524;8.536;2022-11-15T07:50:27;100031.31;;;10.13;74.01
64053;BME280;50299;49.524;8.536;2022-11-15T07:52:58;100036.56;;;10.26;77.45
64053;BME280;50299;49.524;8.536;2022-11-15T07:55:26;100035.94;;;10.42;73.70
64053;BME280;50299;49.524;8.536;2022-11-15T07:58:19;100038.16;;;10.48;70.52
64053;BME280;50299;49.524;8.536;2022-11-15T08:00:49;100036.56;;;10.26;61.63
64053;BME280;50299;49.524;8.536;2022-11-15T08:03:16;100036.34;;;10.31;76.46
64053;BME280;50299;49.524;8.536;2022-11-15T08:05:43;100027.00;;;10.45;73.18
64053;BME280;50299;49.524;8.536;2022-11-15T08:08:18;100026.09;;;10.53;74.39
64053;BME280;50299;49.524;8.536;2022-11-15T08:10:45;100025.22;;;10.61;76.84
64053;BME280;50299;49.524;8.536;2022-11-15T08:13:15;100028.81;;;10.41;68.16
64053;BME280;50299;49.524;8.536;2022-11-15T08:15:44;100025.38;;;10.23;66.93
64053;BME280;50299;49.524;8.536;2022-11-15T08:18:15;100023.75;;;10.22;72.93
64053;BME280;50299;49.524;8.536;2022-11-15T08:20:42;100028.53;;;9.92;62.53
64053;BME280;50299;49.524;8.536;2022-11-15T08:23:11;100029.28;;;10.01;65.83
64053;BME280;50299;49.524;8.536;2022-11-15T08:25:44;100027.44;;;9.84;68.40
64053;BME280;50299;49.524;8.536;2022-11-15T08:28:15;100021.00;;;10.01;64.59
64053;BME280;50299;49.524;8.536;2022-11-15T08:30:42;100020.56;;;9.90;68.93
64053;BME280;50299;49.524;8.536;2022-11-15T08:33:11;100013.94;;;9.91;67.98
64053;BME280;50299;49.524;8.536;2022-11-15T08:35:39;100009.34;;;9.95;67.29
64053;BME280;50299;49.524;8.536;2022-11-15T08:38:05;100004.28;;;9.97;64.59
64053;BME280;50299;49.524;8.536;2022-11-15T08:40:32;100007.72;;;9.94;62.46
64053;BME280;50299;49.524;8.536;2022-11-15T08:43:02;99997.34;;;9.91;66.08
64053;BME280;50299;49.524;8.536;2022-11-15T08:45:34;99999.28;;;9.91;62.10
64053;BME280;50299;49.524;8.536;2022-11-15T08:48:02;100004.25;;;9.76;62.42
64053;BME280;50299;49.524;8.536;2022-11-15T08:50:29;100003.41;;;9.84;63.53
64053;BME280;50299;49.524;8.536;2022-11-15T08:52:55;99997.22;;;9.88;65.77
64053;BME280;50299;49.524;8.536;2022-11-15T08:55:22;99993.50;;;9.83;64.25
64053;BME280;50299;49.524;8.536;2022-11-15T08:57:50;100000.31;;;10.07;63.19
64053;BME280;50299;49.524;8.536;2022-11-15T09:00:17;99999.22;;;9.99;62.88
64053;BME280;50299;49.524;8.536;2022-11-15T09:02:45;99992.66;;;10.13;68.52
64053;BME280;50299;49.524;8.536;2022-11-15T09:05:12;100001.81;;;10.04;62.31
64053;BME280;50299;49.524;8.536;2022-11-15T09:07:38;99999.56;;;10.19;61.55
64053;BME280;50299;49.524;8.536;2022-11-15T09:10:05;100000.44;;;9.90;59.16
64053;BME280;50299;49.524;8.536;2022-11-15T09:12:31;99987.66;;;10.06;65.53
64053;BME280;50299;49.524;8.536;2022-11-15T09:14:58;99985.91;;;10.22;64.67
64053;BME280;50299;49.524;8.536;2022-11-15T09:17:26;99981.16;;;10.44;64.06
64053;BME280;50299;49.524;8.536;2022-11-15T09:19:52;99983.19;;;10.34;60.77
64053;BME280;50299;49.524;8.536;2022-11-15T09:22:19;99979.03;;;10.28;62.23
64053;BME280;50299;49.524;8.536;2022-11-15T09:24:45;99989.94;;;10.25;62.90
64053;BME280;50299;49.524;8.536;2022-11-15T09:27:12;99996.81;;;10.19;60.74
64053;BME280;50299;49.524;8.536;2022-11-15T09:29:39;99991.06;;;10.24;62.10
64053;BME280;50299;49.524;8.536;2022-11-15T09:32:05;100004.53;;;10.46;60.78
64053;BME280;50299;49.524;8.536;2022-11-15T09:34:32;99996.78;;;10.40;61.21
64053;BME280;50299;49.524;8.536;2022-11-15T09:36:58;99994.19;;;10.22;62.58
64053;BME280;50299;49.524;8.536;2022-11-15T09:39:25;99996.13;;;10.43;62.39
64053;BME280;50299;49.524;8.536;2022-11-15T09:42:01;99996.66;;;10.57;60.17
64053;BME280;50299;49.524;8.536;2022-11-15T09:44:57;99989.59;;;10.59;59.31
64053;BME280;50299;49.524;8.536;2022-11-15T09:50:06;99988.66;;;10.76;61.19
64053;BME280;50299;49.524;8.536;2022-11-15T09:52:36;99980.31;;;11.09;64.61
64053;BME280;50299;49.524;8.536;2022-11-15T09:55:04;99985.00;;;10.97;59.50
64053;BME280;50299;49.524;8.536;2022-11-15T09:57:37;99988.50;;;11.18;60.35
64053;BME280;50299;49.524;8.536;2022-11-15T10:00:33;99992.19;;;11.34;60.86
64053;BME280;50299;49.524;8.536;2022-11-15T10:03:23;99991.16;;;11.39;60.81
64053;BME280;50299;49.524;8.536;2022-11-15T10:05:57;99983.44;;;11.57;60.58
64053;BME280;50299;49.524;8.536;2022-11-15T10:09:06;99974.09;;;11.49;60.48
64053;BME280;50299;49.524;8.536;2022-11-15T10:11:52;99969.34;;;11.13;58.36
64053;BME280;50299;49.524;8.536;2022-11-15T10:14:21;99966.13;;;10.99;61.04
64053;BME280;50299;49.524;8.536;2022-11-15T10:17:23;99962.56;;;10.98;58.06
64053;BME280;50299;49.524;8.536;2022-11-15T10:20:17;99963.97;;;10.71;58.69
64053;BME280;50299;49.524;8.536;2022-11-15T10:22:51;99967.34;;;10.77;58.35
64053;BME280;50299;49.524;8.536;2022-11-15T10:25:21;99966.13;;;10.87;60.42
64053;BME280;50299;49.524;8.536;2022-11-15T10:28:01;99961.75;;;11.10;60.69
64053;BME280;50299;49.524;8.536;2022-11-15T10:30:36;99956.69;;;11.37;58.72
64053;BME280;50299;49.524;8.536;2022-11-15T10:41:35;99944.81;;;11.60;59.67
64053;BME280;50299;49.524;8.536;2022-11-15T10:47:20;99937.09;;;11.05;56.13
64053;BME280;50299;49.524;8.536;2022-11-15T10:50:06;99929.47;;;10.56;58.29
64053;BME280;50299;49.524;8.536;2022-11-15T10:52:35;99927.97;;;10.47;58.74
64053;BME280;50299;49.524;8.536;2022-11-15T10:55:12;99930.16;;;10.87;64.77
64053;BME280;50299;49.524;8.536;2022-11-15T10:57:51;99924.06;;;11.18;57.38
64053;BME280;50299;49.524;8.536;2022-11-15T11:05:28;99905.06;;;11.04;58.14
64053;BME280;50299;49.524;8.536;2022-11-15T11:08:04;99901.81;;;11.02;60.36
64053;BME280;50299;49.524;8.536;2022-11-15T11:10:33;99893.16;;;11.52;59.03
64053;BME280;50299;49.524;8.536;2022-11-15T11:13:25;99892.59;;;11.10;57.24
64053;BME280;50299;49.524;8.536;2022-11-15T11:18:44;99881.44;;;10.36;59.22
64053;BME280;50299;49.524;8.536;2022-11-15T11:21:21;99873.34;;;10.77;59.10
64053;BME280;50299;49.524;8.536;2022-11-15T11:27:08;99870.91;;;11.37;61.42
64053;BME280;50299;49.524;8.536;2022-11-15T11:32:36;99861.13;;;11.27;59.07
64053;BME280;50299;49.524;8.536;2022-11-15T11:35:13;99854.50;;;11.56;58.89
64053;BME280;50299;49.524;8.536;2022-11-15T11:40:20;99851.22;;;11.78;57.26
64053;BME280;50299;49.524;8.536;2022-11-15T11:43:04;99844.97;;;11.81;55.75
64053;BME280;50299;49.524;8.536;2022-11-15T11:45:47;99847.88;;;12.01;57.15
64053;BME280;50299;49.524;8.536;2022-11-15T11:50:47;99844.47;;;11.92;57.63
64053;BME280;50299;49.524;8.536;2022-11-15T11:53:21;99839.81;;;11.96;53.97
64053;BME280;50299;49.524;8.536;2022-11-15T11:55:54;99838.06;;;12.03;57.54
64053;BME280;50299;49.524;8.536;2022-11-15T11:58:38;99827.34;;;11.74;53.98
64053;BME280;50299;49.524;8.536;2022-11-15T12:01:19;99823.22;;;11.55;57.41
64053;BME280;50299;49.524;8.536;2022-11-15T12:03:57;99822.19;;;11.88;57.10
64053;BME280;50299;49.524;8.536;2022-11-15T12:06:33;99810.72;;;12.02;58.69
64053;BME280;50299;49.524;8.536;2022-11-15T12:09:26;99812.56;;;12.26;58.00
64053;BME280;50299;49.524;8.536;2022-11-15T12:12:09;99800.56;;;12.53;56.22
64053;BME280;50299;49.524;8.536;2022-11-15T12:17:19;99782.03;;;11.94;57.28
64053;BME280;50299;49.524;8.536;2022-11-15T12:19:47;99781.88;;;12.03;56.13
64053;BME280;50299;49.524;8.536;2022-11-15T12:25:01;99780.97;;;11.99;57.41
64053;BME280;50299;49.524;8.536;2022-11-15T12:27:48;99782.13;;;11.98;55.82
64053;BME280;50299;49.524;8.536;2022-11-15T12:30:21;99772.06;;;12.05;56.84
64053;BME280;50299;49.524;8.536;2022-11-15T12:32:57;99772.84;;;12.06;59.49
64053;BME280;50299;49.524;8.536;2022-11-15T12:35:37;99768.22;;;12.10;56.87
64053;BME280;50299;49.524;8.536;2022-11-15T12:38:11;99761.03;;;12.09;56.79
64053;BME280;50299;49.524;8.536;2022-11-15T12:43:42;99759.81;;;12.22;55.02
64053;BME280;50299;49.524;8.536;2022-11-15T12:46:20;99752.28;;;12.07;54.30
64053;BME280;50299;49.524;8.536;2022-11-15T12:48:58;99756.94;;;11.47;55.49
64053;BME280;50299;49.524;8.536;2022-11-15T12:59:55;99757.78;;;11.75;55.37
64053;BME280;50299;49.524;8.536;2022-11-15T13:04:54;99743.25;;;11.66;56.35
64053;BME280;50299;49.524;8.536;2022-11-15T13:28:35;99715.03;;;11.89;56.83
64053;BME280;50299;49.524;8.536;2022-11-15T13:31:35;99719.75;;;11.88;56.82
64053;BME280;50299;49.524;8.536;2022-11-15T13:34:31;99706.78;;;12.08;57.67
64053;BME280;50299;49.524;8.536;2022-11-15T13:39:45;99702.78;;;11.90;55.77
64053;BME280;50299;49.524;8.536;2022-11-15T13:42:16;99696.75;;;11.72;55.65
64053;BME280;50299;49.524;8.536;2022-11-15T13:44:57;99689.38;;;11.92;57.82
64053;BME280;50299;49.524;8.536;2022-11-15T13:47:26;99689.72;;;11.74;54.61
64053;BME280;50299;49.524;8.536;2022-11-15T13:49:56;99684.81;;;11.55;56.24
64053;BME280;50299;49.524;8.536;2022-11-15T13:52:27;99673.81;;;11.71;56.16
64053;BME280;50299;49.524;8.536;2022-11-15T13:55:13;99666.06;;;11.77;54.62
64053;BME280;50299;49.524;8.536;2022-11-15T13:57:49;99669.63;;;11.77;54.12
64053;BME280;50299;49.524;8.536;2022-11-15T14:00:41;99667.78;;;11.53;56.12
64053;BME280;50299;49.524;8.536;2022-11-15T14:05:42;99659.22;;;11.15;55.46
64053;BME280;50299;49.524;8.536;2022-11-15T14:08:24;99651.41;;;11.32;56.77
64053;BME280;50299;49.524;8.536;2022-11-15T14:11:07;99641.56;;;11.35;56.63
64053;BME280;50299;49.524;8.536;2022-11-15T14:13:35;99638.06;;;11.22;55.13
64053;BME280;50299;49.524;8.536;2022-11-15T14:16:23;99635.44;;;11.42;56.04
64053;BME280;50299;49.524;8.536;2022-11-15T14:19:01;99632.31;;;11.59;56.67
64053;BME280;50299;49.524;8.536;2022-11-15T14:21:28;99618.91;;;11.73;55.04
64053;BME280;50299;49.524;8.536;2022-11-15T14:24:17;99618.25;;;11.80;56.63
64053;BME280;50299;49.524;8.536;2022-11-15T14:26:44;99612.63;;;11.92;58.61
64053;BME280;50299;49.524;8.536;2022-11-15T14:31:49;99616.94;;;11.74;56.58
64053;BME280;50299;49.524;8.536;2022-11-15T14:34:16;99613.00;;;11.91;60.32
64053;BME280;50299;49.524;8.536;2022-11-15T14:36:42;99598.88;;;11.80;58.09
64053;BME280;50299;49.524;8.536;2022-11-15T14:39:08;99589.53;;;11.84;56.50
64053;BME280;50299;49.524;8.536;2022-11-15T14:41:36;99590.28;;;11.69;55.82
64053;BME280;50299;49.524;8.536;2022-11-15T14:44:06;99590.94;;;11.78;60.99
64053;BME280;50299;49.524;8.536;2022-11-15T14:46:32;99589.06;;;11.82;56.24
64053;BME280;50299;49.524;8.536;2022-11-15T14:48:59;99585.69;;;11.73;55.85
64053;BME280;50299;49.524;8.536;2022-11-15T14:51:28;99572.81;;;11.81;56.77
64053;BME280;50299;49.524;8.536;2022-11-15T14:53:54;99575.13;;;11.79;56.88
64053;BME280;50299;49.524;8.536;2022-11-15T14:56:21;99569.75;;;11.86;63.89
64053;BME280;50299;49.524;8.536;2022-11-15T14:58:48;99563.75;;;12.00;60.78
64053;BME280;50299;49.524;8.536;2022-11-15T15:01:24;99566.81;;;11.95;58.21
64053;BME280;50299;49.524;8.536;2022-11-15T15:03:53;99558.16;;;11.80;60.60
64053;BME280;50299;49.524;8.536;2022-11-15T15:06:24;99541.06;;;11.63;58.01
64053;BME280;50299;49.524;8.536;2022-11-15T15:08:52;99534.03;;;11.33;59.08
64053;BME280;50299;49.524;8.536;2022-11-15T15:11:25;99542.88;;;11.23;59.57